Time;durP1;ratioP1;P1;durP2;ratioP2;P2;SDS_P1;SDS_P2;PMS_P1;PMS_P2;Temp;Humidity;BMP_temperature;BMP_pressure;BME280_temperature;BME280_humidity;BME280_pressure;Samples;Min_cycle;Max_cycle;Signal;HPM_P1;HPM_P2
2022/12/13 00:01:51;;;;;;;50.22;22.30;;;-6.40;99.90;;;;;;5069502;28;20529;-71
2022/12/13 00:04:19;;;;;;;47.40;21.60;;;-6.40;99.90;;;;;;5069363;28;20099;-71
2022/12/13 00:06:45;;;;;;;46.45;21.75;;;-6.50;99.90;;;;;;5069069;28;20025;-71
2022/12/13 00:09:15;;;;;;;42.30;20.35;;;-6.50;99.90;;;;;;5069907;28;20043;-71
2022/12/13 00:11:42;;;;;;;48.35;21.02;;;-6.30;99.90;;;;;;5068414;28;20166;-71
2022/12/13 00:14:07;;;;;;;48.97;21.92;;;-6.40;99.90;;;;;;5051877;28;20032;-71
2022/12/13 00:16:33;;;;;;;48.03;21.70;;;-6.40;99.90;;;;;;5069304;28;20218;-70
2022/12/13 00:18:59;;;;;;;50.35;23.70;;;-6.50;99.90;;;;;;5071203;28;20028;-70
2022/12/13 00:21:30;;;;;;;50.35;23.23;;;-6.50;99.90;;;;;;5069250;28;20103;-71
2022/12/13 00:23:56;;;;;;;45.65;22.17;;;-6.50;99.90;;;;;;5071034;28;20023;-71
2022/12/13 00:26:24;;;;;;;44.88;22.63;;;-6.50;99.90;;;;;;5069664;28;20420;-71
2022/12/13 00:28:51;;;;;;;50.60;22.88;;;-6.40;99.90;;;;;;5070248;28;20057;-71
2022/12/13 00:31:18;;;;;;;51.92;22.98;;;-6.40;99.90;;;;;;5069611;28;20029;-72
2022/12/13 00:33:44;;;;;;;45.20;21.40;;;-6.30;99.90;;;;;;5060638;28;20033;-71
2022/12/13 00:36:10;;;;;;;47.53;23.30;;;-6.40;99.90;;;;;;5071255;28;20070;-72
2022/12/13 00:38:36;;;;;;;46.75;21.35;;;-6.40;99.90;;;;;;5069472;28;20107;-70
2022/12/13 00:41:17;;;;;;;42.63;21.52;;;-6.40;99.90;;;;;;5070093;28;20453;-71
2022/12/13 00:43:43;;;;;;;45.08;21.02;;;-6.40;99.90;;;;;;5070276;28;20052;-71
2022/12/13 00:46:17;;;;;;;43.78;20.95;;;-6.50;99.90;;;;;;5070046;28;20029;-71
2022/12/13 00:48:47;;;;;;;47.90;21.45;;;-6.50;99.90;;;;;;5072423;28;20139;-71
2022/12/13 00:51:13;;;;;;;46.10;21.23;;;-6.60;99.90;;;;;;5048525;28;20027;-72
2022/12/13 00:53:39;;;;;;;47.95;21.95;;;-6.60;99.90;;;;;;5067809;28;20119;-71
2022/12/13 00:56:13;;;;;;;53.10;23.33;;;-6.70;99.90;;;;;;5070720;28;20450;-70
2022/12/13 00:58:39;;;;;;;48.50;21.92;;;-6.70;99.90;;;;;;5071253;28;20025;-71
2022/12/13 01:01:11;;;;;;;41.42;20.45;;;-6.70;99.90;;;;;;5070425;28;20021;-70
2022/12/13 01:03:38;;;;;;;47.22;21.23;;;-6.70;99.90;;;;;;5069045;28;20029;-72
2022/12/13 01:06:12;;;;;;;46.03;21.75;;;-6.80;99.90;;;;;;5071016;28;20449;-71
2022/12/13 01:08:38;;;;;;;47.55;22.65;;;-6.90;99.90;;;;;;5069154;28;20032;-71
2022/12/13 01:11:05;;;;;;;50.13;22.75;;;-6.90;99.90;;;;;;5070729;28;20104;-70
2022/12/13 01:13:31;;;;;;;50.60;22.05;;;-7.00;99.90;;;;;;5069230;28;20033;-71
2022/12/13 01:15:56;;;;;;;47.03;22.17;;;-7.00;99.90;;;;;;5070422;28;20082;-71
2022/12/13 01:18:22;;;;;;;51.70;22.85;;;-7.00;99.90;;;;;;5069073;28;20024;-71
2022/12/13 01:21:09;;;;;;;48.90;23.05;;;-7.10;99.90;;;;;;5070106;28;20029;-70
2022/12/13 01:23:34;;;;;;;50.10;21.90;;;-7.10;99.90;;;;;;5068670;28;20013;-71
2022/12/13 01:26:05;;;;;;;49.75;22.83;;;-7.10;99.90;;;;;;5052080;28;20033;-71
2022/12/13 01:28:32;;;;;;;48.03;22.38;;;-7.20;99.90;;;;;;5071482;28;20278;-70
2022/12/13 01:31:07;;;;;;;49.88;23.42;;;-7.30;99.90;;;;;;5074027;28;20028;-71
2022/12/13 01:33:33;;;;;;;50.15;21.85;;;-7.30;99.90;;;;;;5072819;28;20075;-71
2022/12/13 01:36:07;;;;;;;48.45;22.85;;;-7.40;99.90;;;;;;5073748;28;20839;-71
2022/12/13 01:38:34;;;;;;;48.17;22.25;;;-7.40;99.90;;;;;;5072591;28;20599;-71
2022/12/13 01:41:00;;;;;;;57.50;24.90;;;-7.40;99.90;;;;;;5055959;28;20035;-71
2022/12/13 01:43:51;;;;;;;59.92;24.80;;;-7.50;99.90;;;;;;5072601;28;20369;-71
2022/12/13 01:46:17;;;;;;;58.00;23.77;;;-7.40;99.90;;;;;;5073025;28;20028;-73
2022/12/13 01:48:58;;;;;;;60.92;24.60;;;-7.40;99.90;;;;;;5073983;28;20075;-71
2022/12/13 01:51:41;;;;;;;53.78;24.30;;;-7.40;99.90;;;;;;5072484;28;20017;-71
2022/12/13 01:54:13;;;;;;;57.20;24.92;;;-7.30;99.90;;;;;;5070887;28;20031;-71
2022/12/13 01:56:52;;;;;;;57.72;24.15;;;-7.30;99.90;;;;;;5073577;28;20518;-71
2022/12/13 01:59:20;;;;;;;59.83;25.92;;;-7.20;99.90;;;;;;5072755;28;20036;-72
2022/12/13 02:01:47;;;;;;;62.42;25.55;;;-7.20;99.90;;;;;;5066683;28;20090;-72
2022/12/13 02:04:16;;;;;;;58.97;25.65;;;-7.20;99.90;;;;;;5073211;28;20496;-73
2022/12/13 02:06:44;;;;;;;62.22;26.70;;;-7.20;99.90;;;;;;5073068;28;20103;-72
2022/12/13 02:09:10;;;;;;;57.15;24.73;;;-7.10;99.90;;;;;;5073385;28;20094;-71
2022/12/13 02:11:39;;;;;;;56.85;25.20;;;-7.10;99.90;;;;;;5071935;28;20026;-71
2022/12/13 02:14:05;;;;;;;55.47;25.05;;;-7.20;99.90;;;;;;5073218;28;20104;-71
2022/12/13 02:16:54;;;;;;;52.97;24.40;;;-7.20;99.90;;;;;;5072010;28;20070;-71
2022/12/13 02:20:06;;;;;;;56.15;25.33;;;-7.30;99.90;;;;;;5072703;28;20138;-71
2022/12/13 02:22:53;;;;;;;55.13;23.58;;;-7.30;99.90;;;;;;4990001;28;20941;-71
2022/12/13 02:25:45;;;;;;;51.22;23.25;;;-7.40;99.90;;;;;;5069240;28;20036;-71
2022/12/13 02:28:44;;;;;;;62.75;25.20;;;-7.50;99.90;;;;;;5071457;28;20500;-71
2022/12/13 02:31:21;;;;;;;52.50;23.27;;;-7.50;99.90;;;;;;5072929;28;20037;-71
2022/12/13 02:34:12;;;;;;;56.67;24.10;;;-7.50;99.90;;;;;;5062980;28;20067;-71
2022/12/13 02:36:55;;;;;;;56.63;24.73;;;-7.50;99.90;;;;;;5044155;28;20662;-72
2022/12/13 02:39:27;;;;;;;52.47;25.05;;;-7.60;99.90;;;;;;5068293;28;20557;-72
2022/12/13 02:42:01;;;;;;;59.53;25.20;;;-7.60;99.90;;;;;;5072338;28;20421;-70
2022/12/13 02:44:33;;;;;;;54.60;23.63;;;-7.60;99.90;;;;;;5071716;28;20021;-70
2022/12/13 02:47:16;;;;;;;58.88;25.13;;;-7.60;99.90;;;;;;5072563;28;20052;-71
2022/12/13 02:49:58;;;;;;;58.47;24.42;;;-7.60;99.90;;;;;;5071996;28;20484;-71
2022/12/13 02:52:29;;;;;;;59.03;25.13;;;-7.60;99.90;;;;;;5071121;28;20508;-72
2022/12/13 02:54:56;;;;;;;67.88;26.30;;;-7.50;99.90;;;;;;5072611;28;20027;-71
2022/12/13 02:57:41;;;;;;;57.55;25.17;;;-7.50;99.90;;;;;;5073415;28;20025;-71
2022/12/13 03:00:15;;;;;;;62.63;25.98;;;-7.50;99.90;;;;;;5072535;28;20032;-71
2022/12/13 03:02:47;;;;;;;58.58;25.67;;;-7.40;99.90;;;;;;5071485;28;20051;-71
2022/12/13 03:08:20;;;;;;;56.53;23.63;;;-7.40;99.90;;;;;;5063546;28;20508;-71
2022/12/13 03:11:11;;;;;;;59.67;25.08;;;-7.40;99.90;;;;;;5072611;28;20112;-70
2022/12/13 03:13:37;;;;;;;59.53;24.20;;;-7.50;99.90;;;;;;5070920;28;20032;-72
2022/12/13 03:16:14;;;;;;;56.45;25.20;;;-7.50;99.90;;;;;;5072276;28;20346;-71
2022/12/13 03:18:41;;;;;;;58.33;24.17;;;-7.50;99.90;;;;;;5070729;28;20037;-71
2022/12/13 03:21:08;;;;;;;53.88;23.50;;;-7.50;99.90;;;;;;5072079;28;20033;-71
2022/12/13 03:23:36;;;;;;;54.42;22.30;;;-7.50;99.90;;;;;;5070187;28;20035;-71
2022/12/13 03:26:09;;;;;;;53.45;23.65;;;-7.60;99.90;;;;;;5071706;28;20021;-71
2022/12/13 03:28:35;;;;;;;55.10;24.75;;;-7.70;99.90;;;;;;5070106;28;20048;-72
2022/12/13 03:31:00;;;;;;;53.85;23.67;;;-7.70;99.90;;;;;;5071801;28;20066;-72
2022/12/13 03:33:26;;;;;;;59.28;25.02;;;-7.70;99.90;;;;;;5070437;28;20049;-72
2022/12/13 03:35:51;;;;;;;54.70;23.48;;;-7.70;99.90;;;;;;5071102;28;20107;-72
2022/12/13 03:38:18;;;;;;;58.00;25.70;;;-7.80;99.90;;;;;;5070540;28;20112;-73
2022/12/13 03:40:44;;;;;;;62.30;24.02;;;-7.80;99.90;;;;;;5071586;28;20482;-71
2022/12/13 03:43:09;;;;;;;55.45;22.95;;;-7.80;99.90;;;;;;5071259;28;20043;-71
2022/12/13 03:45:35;;;;;;;56.85;23.25;;;-7.80;99.90;;;;;;5070375;28;20112;-70
2022/12/13 03:48:01;;;;;;;57.88;25.05;;;-7.80;99.90;;;;;;5071261;28;20036;-70
2022/12/13 03:50:26;;;;;;;48.70;21.70;;;-7.80;99.90;;;;;;5070093;28;20020;-72
2022/12/13 03:53:00;;;;;;;53.60;22.38;;;-7.80;99.90;;;;;;5066374;28;20025;-70
2022/12/13 03:55:26;;;;;;;50.67;21.50;;;-7.80;99.90;;;;;;5067759;28;20090;-71
2022/12/13 03:57:52;;;;;;;54.78;22.67;;;-7.80;99.90;;;;;;5071840;28;20028;-71
2022/12/13 04:00:18;;;;;;;47.50;20.25;;;-7.80;99.90;;;;;;5070749;28;20040;-71
2022/12/13 04:02:44;;;;;;;47.72;21.05;;;-7.80;99.90;;;;;;5070969;28;20089;-71
2022/12/13 04:05:10;;;;;;;49.45;21.35;;;-7.80;99.90;;;;;;5071258;28;20021;-72
2022/12/13 04:07:35;;;;;;;47.25;19.55;;;-7.90;99.90;;;;;;5070127;28;20179;-71
2022/12/13 04:10:02;;;;;;;44.35;20.17;;;-7.90;99.90;;;;;;5071298;28;20032;-71
2022/12/13 04:15:12;;;;;;;48.75;21.35;;;-7.90;99.90;;;;;;5075037;28;20035;-72
2022/12/13 04:17:37;;;;;;;47.88;21.02;;;-7.90;99.90;;;;;;5070053;28;20032;-72
2022/12/13 04:20:03;;;;;;;43.67;19.90;;;-7.90;99.90;;;;;;5070948;28;20094;-71
2022/12/13 04:22:29;;;;;;;49.47;19.88;;;-7.90;99.90;;;;;;5069558;28;20051;-71
2022/12/13 04:24:54;;;;;;;48.80;21.50;;;-7.90;99.90;;;;;;5080189;28;20052;-72
2022/12/13 04:27:23;;;;;;;46.45;21.50;;;;;;;;;;5069252;28;20074;-72
2022/12/13 04:29:49;;;;;;;54.78;21.52;;;;;;;;;;5070947;28;20067;-72
2022/12/13 04:32:15;;;;;;;52.30;21.80;;;;;;;;;;5069835;28;20052;-73
2022/12/13 04:34:41;;;;;;;49.53;21.73;;;;;;;;;;5070610;28;20025;-72
2022/12/13 04:37:06;;;;;;;48.58;22.27;;;;;;;;;;5070601;28;20028;-71
2022/12/13 04:39:33;;;;;;;53.47;23.42;;;;;;;;;;5069675;28;20096;-71
2022/12/13 04:41:58;;;;;;;46.72;22.40;;;;;;;;;;5069889;28;20107;-71
2022/12/13 04:44:24;;;;;;;51.40;22.10;;;;;;;;;;5069926;28;20439;-71
2022/12/13 04:46:50;;;;;;;52.90;22.00;;;;;;;;;;5070270;28;20035;-71
2022/12/13 04:49:17;;;;;;;43.72;20.40;;;;;;;;;;5070146;28;20470;-72
2022/12/13 04:51:43;;;;;;;41.90;19.23;;;;;;;;;;5066626;28;20387;-72
2022/12/13 04:54:09;;;;;;;43.88;19.75;;;;;;;;;;5068628;28;20035;-72
2022/12/13 04:56:35;;;;;;;44.50;20.13;;;;;;;;;;5069312;28;20094;-71
2022/12/13 04:59:01;;;;;;;46.45;20.45;;;;;;;;;;5072617;28;20028;-71
2022/12/13 05:01:27;;;;;;;46.70;19.10;;;;;;;;;;5073626;28;20032;-71
2022/12/13 05:03:53;;;;;;;45.35;18.20;;;;;;;;;;5074554;28;20496;-71
2022/12/13 05:06:19;;;;;;;41.22;18.23;;;;;;;;;;5073859;28;20137;-72
2022/12/13 05:08:45;;;;;;;42.08;19.17;;;;;;;;;;5074210;28;20073;-71
2022/12/13 05:11:11;;;;;;;43.55;18.55;;;;;;;;;;5074864;28;20521;-69
2022/12/13 05:13:37;;;;;;;43.20;17.92;;;;;;;;;;5072563;28;20044;-69
2022/12/13 05:16:05;;;;;;;38.65;18.02;;;;;;;;;;5074417;28;20381;-70
2022/12/13 05:18:31;;;;;;;48.55;18.50;;;;;;;;;;5072692;28;20086;-70
2022/12/13 05:21:01;;;;;;;45.60;18.52;;;;;;;;;;5073942;28;20485;-69
2022/12/13 05:23:27;;;;;;;39.95;17.90;;;;;;;;;;5072711;28;20012;-69
2022/12/13 05:25:53;;;;;;;44.47;19.05;;;;;;;;;;5073701;28;20025;-69
2022/12/13 05:28:19;;;;;;;46.47;18.65;;;;;;;;;;5036269;28;20133;-70
2022/12/13 05:30:45;;;;;;;44.15;18.75;;;;;;;;;;5034135;28;20021;-68
2022/12/13 05:33:11;;;;;;;44.78;17.27;;;;;;;;;;5033441;28;20463;-70
2022/12/13 05:35:37;;;;;;;34.78;15.93;;;;;;;;;;5032803;28;20036;-70
2022/12/13 05:38:04;;;;;;;38.17;18.30;;;;;;;;;;5033184;28;20364;-68
2022/12/13 05:40:31;;;;;;;35.72;16.88;;;;;;;;;;5033393;28;20025;-67
2022/12/13 05:42:57;;;;;;;40.75;18.35;;;;;;;;;;5033588;28;20032;-69
2022/12/13 05:45:23;;;;;;;41.80;18.45;;;;;;;;;;5032687;28;20014;-69
2022/12/13 05:47:49;;;;;;;38.92;18.75;;;;;;;;;;5033242;28;20033;-68
2022/12/13 05:50:16;;;;;;;42.13;19.15;;;;;;;;;;5033548;28;20039;-72
2022/12/13 05:52:42;;;;;;;51.42;20.58;;;;;;;;;;5026994;28;20117;-68
2022/12/13 05:55:09;;;;;;;41.85;18.13;;;;;;;;;;5033728;28;20075;-68
2022/12/13 05:57:35;;;;;;;41.53;17.67;;;;;;;;;;5032076;28;20014;-68
2022/12/13 06:00:01;;;;;;;41.17;18.15;;;;;;;;;;5033528;28;20088;-69
2022/12/13 06:02:27;;;;;;;44.00;18.67;;;;;;;;;;5031807;28;20470;-68
2022/12/13 06:04:53;;;;;;;47.20;18.88;;;;;;;;;;5033477;28;20151;-69
2022/12/13 06:07:19;;;;;;;37.40;16.63;;;;;;;;;;5031715;28;20098;-70
2022/12/13 06:09:45;;;;;;;41.17;18.45;;;;;;;;;;5032989;28;20048;-68
2022/12/13 06:12:11;;;;;;;39.95;17.95;;;;;;;;;;5031884;28;20474;-69
2022/12/13 06:14:37;;;;;;;36.88;17.33;;;;;;;;;;5032247;28;20080;-69
2022/12/13 06:17:03;;;;;;;38.13;16.55;;;;;;;;;;5032532;28;20167;-69
2022/12/13 06:19:29;;;;;;;43.97;18.27;;;;;;;;;;5032268;28;20156;-69
2022/12/13 06:21:55;;;;;;;37.42;17.10;;;;;;;;;;5032303;28;20134;-68
2022/12/13 06:24:22;;;;;;;37.10;17.00;;;;;;;;;;5032042;28;20021;-69
2022/12/13 06:26:49;;;;;;;38.70;18.10;;;;;;;;;;5032151;28;20033;-69
2022/12/13 06:29:16;;;;;;;42.90;19.30;;;;;;;;;;5048398;28;20033;-70
2022/12/13 06:31:42;;;;;;;33.65;16.63;;;;;;;;;;5034003;28;20087;-69
2022/12/13 06:34:08;;;;;;;40.90;17.27;;;;;;;;;;5052856;28;20438;-69
2022/12/13 06:36:34;;;;;;;43.28;20.25;;;;;;;;;;5051721;28;20270;-68
2022/12/13 06:39:03;;;;;;;44.42;18.90;;;;;;;;;;5052451;28;20048;-69
2022/12/13 06:41:29;;;;;;;40.28;18.52;;;;;;;;;;5049097;28;20321;-69
2022/12/13 06:43:55;;;;;;;44.78;19.67;;;;;;;;;;5052802;28;20021;-69
2022/12/13 06:46:21;;;;;;;50.65;21.83;;;-8.40;99.90;;;;;;5045041;28;20096;-69
2022/12/13 06:48:47;;;;;;;54.25;21.38;;;-8.50;99.90;;;;;;5054705;28;20036;-69
2022/12/13 06:51:13;;;;;;;48.83;20.67;;;-8.50;99.90;;;;;;5052666;28;20083;-70
2022/12/13 06:53:40;;;;;;;54.63;22.80;;;-8.50;99.90;;;;;;5050934;28;20021;-70
2022/12/13 06:56:08;;;;;;;53.63;22.25;;;-8.60;99.90;;;;;;5052473;28;20505;-68
2022/12/13 06:58:35;;;;;;;61.58;26.92;;;-8.60;99.90;;;;;;5050750;28;20044;-68
2022/12/13 07:01:12;;;;;;;53.25;20.02;;;-8.60;99.90;;;;;;5051798;28;20505;-71
2022/12/13 07:03:38;;;;;;;56.50;22.95;;;-8.60;99.90;;;;;;5050463;28;20080;-71
2022/12/13 07:06:11;;;;;;;46.45;20.33;;;-8.50;99.90;;;;;;5052435;28;20482;-71
2022/12/13 07:08:36;;;;;;;56.13;20.65;;;-8.40;99.90;;;;;;5049494;28;20031;-70
2022/12/13 07:11:02;;;;;;;49.03;21.35;;;-8.40;99.90;;;;;;5051640;28;20033;-70
2022/12/13 07:13:28;;;;;;;46.67;20.77;;;-8.40;99.90;;;;;;5050818;28;20108;-69
2022/12/13 07:15:53;;;;;;;41.80;17.95;;;-8.40;99.90;;;;;;5051714;28;20060;-69
2022/12/13 07:18:19;;;;;;;42.88;18.58;;;-8.50;99.90;;;;;;5050599;28;20074;-70
2022/12/13 07:20:45;;;;;;;51.17;19.40;;;-8.50;99.90;;;;;;5052303;28;20021;-70
2022/12/13 07:23:12;;;;;;;64.70;24.25;;;-8.50;99.90;;;;;;5033579;28;20366;-68
2022/12/13 07:25:38;;;;;;;59.83;21.38;;;-8.50;99.90;;;;;;5051159;28;20069;-70
2022/12/13 07:28:07;;;;;;;47.50;20.25;;;-8.50;99.90;;;;;;5050842;28;20055;-69
2022/12/13 07:30:36;;;;;;;48.92;19.23;;;-8.40;99.90;;;;;;5051013;28;20028;-70
2022/12/13 07:33:02;;;;;;;47.28;20.35;;;-8.30;99.90;;;;;;5051148;28;20108;-68
2022/12/13 07:35:28;;;;;;;48.53;20.05;;;-8.30;99.90;;;;;;5050913;28;20029;-70
2022/12/13 07:37:54;;;;;;;48.72;20.33;;;-8.20;99.90;;;;;;5033441;28;20082;-70
2022/12/13 07:40:19;;;;;;;47.90;19.83;;;-8.20;99.90;;;;;;5032646;28;20040;-69
2022/12/13 07:42:55;;;;;;;52.15;21.77;;;-8.10;99.90;;;;;;5051168;28;20025;-69
2022/12/13 07:45:22;;;;;;;43.55;19.67;;;-8.00;99.90;;;;;;5026381;28;20029;-69
2022/12/13 07:47:48;;;;;;;51.67;21.17;;;-8.00;99.90;;;;;;5050569;28;20466;-69
2022/12/13 07:50:14;;;;;;;46.13;21.15;;;-7.90;99.90;;;;;;5051045;28;20064;-70
2022/12/13 07:52:41;;;;;;;47.83;20.40;;;-7.80;99.90;;;;;;5032696;28;20362;-70
2022/12/13 07:55:07;;;;;;;45.20;20.08;;;-7.80;99.90;;;;;;5051784;28;20043;-71
2022/12/13 07:57:33;;;;;;;47.60;20.95;;;-7.80;99.90;;;;;;5053902;28;20055;-69
2022/12/13 07:59:59;;;;;;;44.35;20.40;;;-7.80;99.90;;;;;;5052023;28;20036;-68
2022/12/13 08:02:24;;;;;;;52.55;22.73;;;-7.70;99.90;;;;;;5050250;28;20025;-69
2022/12/13 08:04:50;;;;;;;50.55;20.60;;;-7.70;99.90;;;;;;5051142;28;20074;-69
2022/12/13 08:07:16;;;;;;;52.75;22.60;;;-7.70;99.90;;;;;;5046508;28;20351;-71
2022/12/13 08:09:41;;;;;;;55.65;22.13;;;-7.60;99.90;;;;;;5050154;28;20093;-69
2022/12/13 08:12:07;;;;;;;52.55;21.88;;;-7.60;99.90;;;;;;5050541;28;20470;-69
2022/12/13 08:14:33;;;;;;;55.97;22.08;;;-7.60;99.90;;;;;;5050095;28;20021;-70
2022/12/13 08:16:59;;;;;;;52.22;22.08;;;-7.60;99.90;;;;;;5049667;28;20036;-69
2022/12/13 08:19:24;;;;;;;55.83;22.80;;;-7.50;99.90;;;;;;5049162;28;20037;-71
2022/12/13 08:21:51;;;;;;;51.65;23.83;;;-7.50;99.90;;;;;;5050390;28;20491;-69
2022/12/13 08:24:20;;;;;;;48.10;21.30;;;-7.40;99.90;;;;;;5049999;28;20040;-70
2022/12/13 08:26:46;;;;;;;47.92;22.23;;;-7.30;99.90;;;;;;5050042;28;20033;-69
2022/12/13 08:29:12;;;;;;;49.50;20.33;;;-7.30;99.90;;;;;;5044567;28;20043;-69
2022/12/13 08:31:38;;;;;;;49.15;21.45;;;-7.30;99.90;;;;;;5047108;28;20112;-69
2022/12/13 08:34:03;;;;;;;50.85;22.65;;;-7.20;99.90;;;;;;5046893;28;20033;-69
2022/12/13 08:36:29;;;;;;;45.30;20.90;;;-7.10;99.90;;;;;;5034996;28;20075;-70
2022/12/13 08:38:56;;;;;;;42.05;19.70;;;-7.00;99.90;;;;;;5050440;28;20043;-68
2022/12/13 08:41:21;;;;;;;55.90;20.02;;;-6.90;99.90;;;;;;5048507;28;20120;-70
2022/12/13 08:43:47;;;;;;;48.80;20.70;;;-6.80;99.90;;;;;;5049092;28;20108;-70
2022/12/13 08:46:13;;;;;;;42.47;19.83;;;-6.80;99.90;;;;;;5046502;28;20450;-70
2022/12/13 08:48:39;;;;;;;40.92;19.45;;;-6.70;99.90;;;;;;5046982;28;20060;-69
2022/12/13 08:51:07;;;;;;;44.08;20.48;;;-6.70;99.90;;;;;;5050593;28;20040;-69
2022/12/13 08:53:33;;;;;;;38.73;18.63;;;-6.60;99.90;;;;;;5043489;28;20033;-70
2022/12/13 08:56:04;;;;;;;44.83;20.80;;;-6.50;99.90;;;;;;5046652;28;20037;-69
2022/12/13 08:58:30;;;;;;;48.30;19.52;;;-6.40;99.90;;;;;;5048115;28;20456;-70
2022/12/13 09:00:56;;;;;;;43.33;18.95;;;-6.20;99.90;;;;;;5050271;28;20138;-69
2022/12/13 09:03:21;;;;;;;34.72;17.77;;;-6.20;99.90;;;;;;5048041;28;20482;-70
2022/12/13 09:05:47;;;;;;;39.03;17.77;;;-6.10;99.90;;;;;;5050470;28;20036;-69
2022/12/13 09:08:13;;;;;;;43.53;19.50;;;-6.00;99.90;;;;;;5049082;28;20063;-70
2022/12/13 09:10:38;;;;;;;42.95;19.45;;;-5.90;99.90;;;;;;5034049;28;20029;-70
2022/12/13 09:13:04;;;;;;;37.05;17.70;;;-5.80;99.90;;;;;;5048712;28;20044;-69
2022/12/13 09:15:31;;;;;;;47.25;18.83;;;-5.70;99.90;;;;;;5047617;28;20159;-70
2022/12/13 09:17:57;;;;;;;40.05;17.88;;;-5.70;99.90;;;;;;5051479;28;20028;-69
2022/12/13 09:20:23;;;;;;;37.30;17.77;;;-5.50;99.90;;;;;;5042396;28;20029;-70
2022/12/13 09:22:49;;;;;;;39.20;18.35;;;-5.30;99.90;;;;;;5047457;28;20021;-71
2022/12/13 09:25:15;;;;;;;35.63;16.77;;;-5.20;99.90;;;;;;5050198;28;20076;-71
2022/12/13 09:27:41;;;;;;;43.20;17.58;;;-5.10;99.90;;;;;;5048382;28;20338;-70
2022/12/13 09:30:11;;;;;;;32.72;15.98;;;-4.90;99.90;;;;;;5050083;28;20043;-70
2022/12/13 09:32:37;;;;;;;31.42;15.45;;;-4.80;99.90;;;;;;5049028;28;20127;-68
2022/12/13 09:35:03;;;;;;;33.25;16.45;;;-4.70;99.90;;;;;;5049260;28;20378;-70
2022/12/13 09:37:29;;;;;;;35.65;15.43;;;-4.60;99.90;;;;;;5048978;28;20035;-67
2022/12/13 09:39:55;;;;;;;33.55;14.95;;;-4.50;99.90;;;;;;5050982;28;20447;-73
2022/12/13 09:42:24;;;;;;;31.60;15.32;;;-4.40;99.90;;;;;;5048860;28;20029;-71
2022/12/13 09:44:59;;;;;;;35.15;16.52;;;-4.30;99.90;;;;;;5048065;28;20029;-70
2022/12/13 09:47:35;;;;;;;31.67;14.85;;;-4.20;99.90;;;;;;5048842;28;20025;-70
2022/12/13 09:50:07;;;;;;;33.10;15.43;;;-4.20;99.90;;;;;;5050696;28;20056;-70
2022/12/13 09:52:37;;;;;;;34.10;15.07;;;-4.10;99.90;;;;;;5050512;28;20037;-69
2022/12/13 09:55:17;;;;;;;38.80;16.42;;;-4.00;99.90;;;;;;5053718;28;20025;-69
2022/12/13 09:57:43;;;;;;;31.63;15.73;;;-4.00;99.90;;;;;;5052494;28;20025;-69
2022/12/13 10:00:15;;;;;;;32.05;14.68;;;-4.00;99.90;;;;;;5035310;28;20091;-69
2022/12/13 10:02:56;;;;;;;34.08;16.17;;;-3.90;99.90;;;;;;5051117;28;20063;-70
2022/12/13 10:05:28;;;;;;;34.08;14.68;;;-3.80;99.90;;;;;;5058324;28;20040;-69
2022/12/13 10:07:57;;;;;;;33.83;16.55;;;-3.80;99.90;;;;;;5052185;28;20090;-70
2022/12/13 10:10:24;;;;;;;31.30;15.00;;;-3.70;99.90;;;;;;5050536;28;20087;-71
2022/12/13 10:13:08;;;;;;;30.13;14.35;;;-3.70;99.90;;;;;;5052723;28;20040;-70
2022/12/13 10:15:37;;;;;;;31.23;14.32;;;-3.60;99.90;;;;;;5052179;28;20053;-70
2022/12/13 10:18:05;;;;;;;30.58;14.55;;;-3.50;99.90;;;;;;5052347;28;20025;-70
2022/12/13 10:20:33;;;;;;;30.83;14.35;;;-3.50;99.90;;;;;;5050660;28;20059;-69
2022/12/13 10:22:59;;;;;;;36.38;14.95;;;-3.50;99.90;;;;;;5052835;28;20599;-69
2022/12/13 10:25:53;;;;;;;29.45;14.60;;;-3.40;99.90;;;;;;5055460;28;20028;-70
2022/12/13 10:28:30;;;;;;;31.00;15.10;;;-3.40;99.90;;;;;;5049968;28;20048;-70
2022/12/13 10:30:57;;;;;;;31.55;14.45;;;-3.30;99.90;;;;;;5050976;28;20498;-70
2022/12/13 10:33:30;;;;;;;33.38;15.48;;;-3.30;99.90;;;;;;5051588;28;20029;-71
2022/12/13 10:36:14;;;;;;;30.30;13.07;;;-3.30;99.90;;;;;;5045320;28;20039;-70
2022/12/13 10:38:44;;;;;;;26.88;12.98;;;-3.20;99.90;;;;;;5047178;28;20044;-71
2022/12/13 10:42:00;;;;;;;31.13;12.18;;;-3.20;99.90;;;;;;5044329;28;20435;-72
2022/12/13 10:44:26;;;;;;;30.40;14.50;;;-3.10;99.90;;;;;;4970898;28;20030;-71
2022/12/13 10:47:02;;;;;;;30.33;15.27;;;-3.10;99.90;;;;;;4971240;28;20041;-71
2022/12/13 10:49:48;;;;;;;31.55;13.05;;;-2.90;99.90;;;;;;4968979;28;20122;-71
2022/12/13 10:52:30;;;;;;;30.80;13.43;;;-2.90;99.90;;;;;;4970685;28;20061;-71
2022/12/13 10:54:58;;;;;;;34.60;13.10;;;-2.80;99.90;;;;;;4971053;28;20035;-69
2022/12/13 10:57:24;;;;;;;27.85;12.90;;;-2.80;99.90;;;;;;4968229;28;20034;-70
2022/12/13 10:59:51;;;;;;;33.15;15.20;;;-2.70;99.90;;;;;;4967093;28;20093;-69
2022/12/13 11:02:32;;;;;;;29.17;13.13;;;-2.60;99.90;;;;;;4970034;28;20043;-72
2022/12/13 11:04:59;;;;;;;39.30;13.80;;;-2.60;99.90;;;;;;4969946;28;20070;-70
2022/12/13 11:07:28;;;;;;;38.85;14.20;;;-2.50;99.90;;;;;;4969345;28;20083;-70
2022/12/13 11:09:55;;;;;;;31.88;13.23;;;-2.50;99.90;;;;;;4970972;28;20094;-69
2022/12/13 11:12:27;;;;;;;28.15;13.05;;;-2.50;99.90;;;;;;4970084;28;20055;-69
2022/12/13 11:15:05;;;;;;;31.10;12.70;;;-2.40;99.90;;;;;;5006727;28;20052;-69
2022/12/13 11:17:36;;;;;;;27.60;12.80;;;-2.10;99.90;;;;;;5050809;28;20104;-69
2022/12/13 11:20:14;;;;;;;28.23;12.07;;;-2.10;99.90;;;;;;5052497;28;20082;-69
2022/12/13 11:22:40;;;;;;;35.00;14.32;;;-2.00;99.90;;;;;;5025642;28;20037;-70
2022/12/13 11:25:22;;;;;;;25.48;11.77;;;-1.90;99.90;;;;;;5048461;28;20028;-69
2022/12/13 11:28:06;;;;;;;26.33;12.77;;;-1.90;99.90;;;;;;5040190;28;20505;-69
2022/12/13 11:30:58;;;;;;;30.92;12.32;;;-1.80;99.90;;;;;;5050373;28;20106;-71
2022/12/13 11:33:43;;;;;;;30.20;12.85;;;-1.80;99.90;;;;;;5050308;28;20032;-71
2022/12/13 11:36:31;;;;;;;26.73;11.75;;;-1.70;99.90;;;;;;5050419;28;20036;-71
2022/12/13 11:39:09;;;;;;;29.05;11.55;;;-1.70;99.90;;;;;;5043191;28;20045;-70
2022/12/13 11:41:54;;;;;;;26.10;12.40;;;-1.70;99.90;;;;;;5048389;28;20107;-70
2022/12/13 11:44:37;;;;;;;30.25;13.65;;;-1.60;99.90;;;;;;5050419;28;20056;-70
2022/12/13 11:47:08;;;;;;;38.20;14.15;;;-1.60;99.90;;;;;;5039687;28;20033;-70
2022/12/13 11:49:39;;;;;;;33.30;13.07;;;-1.60;99.90;;;;;;5047977;28;20796;-71
2022/12/13 11:52:29;;;;;;;37.75;13.82;;;-1.50;99.90;;;;;;5050925;28;20504;-71
2022/12/13 11:55:02;;;;;;;26.90;12.57;;;-1.50;99.90;;;;;;5051426;28;20497;-70
2022/12/13 11:57:40;;;;;;;29.42;13.05;;;-1.40;99.90;;;;;;5044859;28;20027;-71
2022/12/13 12:00:35;;;;;;;30.52;12.65;;;-1.40;99.90;;;;;;5049349;28;20103;-70
2022/12/13 12:03:36;;;;;;;26.95;13.32;;;-1.40;99.90;;;;;;5043823;28;20039;-70
2022/12/13 12:06:15;;;;;;;28.67;12.45;;;-1.40;99.90;;;;;;5047992;28;20017;-70
2022/12/13 12:08:56;;;;;;;25.92;12.02;;;-1.40;99.90;;;;;;5048982;28;20036;-70
2022/12/13 12:11:27;;;;;;;30.23;13.70;;;-1.40;99.90;;;;;;5049235;28;20037;-71
2022/12/13 12:14:00;;;;;;;27.02;12.80;;;-1.30;99.90;;;;;;5050738;28;20517;-70
2022/12/13 12:16:37;;;;;;;31.67;13.32;;;-1.30;99.90;;;;;;5049888;28;20040;-70
2022/12/13 12:19:10;;;;;;;31.27;13.27;;;-1.30;99.90;;;;;;5040591;28;20124;-70
2022/12/13 12:21:45;;;;;;;34.17;13.57;;;-1.30;99.90;;;;;;5047653;28;20024;-72
2022/12/13 12:24:29;;;;;;;30.38;13.65;;;-1.30;99.90;;;;;;5051112;28;20017;-71
2022/12/13 12:27:05;;;;;;;27.67;12.70;;;-1.20;99.90;;;;;;5049909;28;20421;-71
2022/12/13 12:29:52;;;;;;;29.75;13.95;;;-1.10;99.90;;;;;;5048906;28;20382;-70
2022/12/13 12:32:32;;;;;;;29.13;13.45;;;-1.10;99.90;;;;;;5049227;28;20069;-71
2022/12/13 12:35:15;;;;;;;28.83;12.15;;;-1.10;99.90;;;;;;5050696;28;20501;-72
2022/12/13 12:37:48;;;;;;;64.65;14.85;;;-1.10;99.90;;;;;;5048848;28;20143;-71
2022/12/13 12:40:31;;;;;;;68.85;18.85;;;-1.00;99.90;;;;;;5049388;28;20033;-71
2022/12/13 12:43:18;;;;;;;33.03;12.68;;;-1.00;99.90;;;;;;5050082;28;20024;-71
2022/12/13 12:45:57;;;;;;;40.35;13.30;;;-1.00;99.90;;;;;;5041226;28;20470;-71
2022/12/13 12:49:00;;;;;;;26.60;12.20;;;-1.00;99.90;;;;;;5047835;28;20036;-73
2022/12/13 12:51:27;;;;;;;34.58;12.80;;;-1.00;99.90;;;;;;5043449;28;20100;-71
2022/12/13 12:54:16;;;;;;;32.38;12.55;;;-1.00;99.90;;;;;;5050458;28;20381;-71
2022/12/13 12:56:45;;;;;;;33.67;13.32;;;-1.10;99.90;;;;;;5049242;28;20052;-71
2022/12/13 12:59:24;;;;;;;26.83;11.98;;;-1.00;99.90;;;;;;5050592;28;20083;-70
2022/12/13 13:02:24;;;;;;;27.55;12.30;;;-1.00;99.90;;;;;;5047267;28;20478;-71
2022/12/13 13:05:00;;;;;;;41.13;14.50;;;-0.90;99.90;;;;;;5015461;28;20037;-72
2022/12/13 13:07:32;;;;;;;29.55;13.52;;;;;;;;;;5055353;28;20342;-70
2022/12/13 13:09:58;;;;;;;29.63;13.23;;;;;;;;;;5050609;28;20043;-70